Haigler, NE

2:08 AM MST on December 29, 2014 (GMT -0700)
APRSWXNET Wray CO US | Change Station
CLOSE
Current Station
Personal Weather Station
Location: Wray, CO
Elevation: 3517 ft
Nearby Weather Stations
Active Advisory: Special Statement

Elev 3517 ft 40.08 °N, 102.23 °W | Updated 41 minutes ago

Partly Cloudy
Partly Cloudy
7 °F
Feels Like 7 °F
N
0
Wind Variable Wind from NNW
Gusts 2.0 mph

Today
High -- | Low -- °F
--% Chance of Precip.
Yesterday
High -- | Low -- °F
Precip. -- in
7:09 AM 4:30 PM
First Quarter, 57% visible
Pressure 30.05 in
Visibility 10.0 miles
Clouds Clear
Windchill 7 °F
Dew Point 4 °F
Humidity 87%
Rainfall 0.03 in
Snow Depth Not available.
UV 0 out of 12
Pollen .10 out of 12
Air Quality Not available.
Flu Activity Not available.
METAR K2V5 290915Z AUTO 27003KT 10SM CLR M14/M15 A3005 RMK AO2 T11401155

More Conditions Fewer Conditions

Pressure 30.05 in
Visibility 10.0 miles
Clouds Clear
Windchill 7 °F
Dew Point 4 °F
Humidity 87%
Rainfall 0.03 in
Snow Depth Not available.
UV 0 out of 12
Pollen .10 out of 12
Air Quality Not available.
Flu Activity Not available.
METAR K2V5 290915Z AUTO 27003KT 10SM CLR M14/M15 A3005 RMK AO2 T11401155

More Conditions Fewer Conditions

Nowcast | as of 12:08 am MST on December 29, 2014

Areas of fog will limit visibilities to less than one mile through the early morning. Drivers should use extra caution early this morning...especially if driving on Interstate 70 between Colby Kansas and Stratton Colorado. Use low beam headlights when you encounter fog.

×

10-Day Weather Forecast

Almanac

Astronomy

Dec. 29, 2014 Rise Set
Actual Time
Civil Twilight
Nautical Twilight
Astronomical Twilight
Moon
Length of Visible Light
Length of Day
Tomorrow will be .
, % of the Moon is Illuminated

Today's Extremes

State Highs State Lows

Community

WunderPhotos

Upload Photos

1,781,559 photos uploaded!

WunderBlogs® & News

Nearby

Air Quality

  Air Quality AQ Index Pollutant
Not available.

Snow Depth

Station Depth Elevation

Earthquake Activity

City Distance Mag. Time & Date
Minimum magnitude displayed is 2.5.

Coastal Water Temperatures

Place Temperature

Nearby Weather Stations